sensor_id;sensor_type;location;lat;lon;timestamp;P1;durP1;ratioP1;P2;durP2;ratioP2
53710;SDS011;39605;52.704;6.752;2023-09-12T00:01:43;56.05;;;49.97;;
53710;SDS011;39605;52.704;6.752;2023-09-12T00:04:09;49.70;;;44.97;;
53710;SDS011;39605;52.704;6.752;2023-09-12T00:06:36;53.65;;;48.33;;
53710;SDS011;39605;52.704;6.752;2023-09-12T00:09:02;52.97;;;47.85;;
53710;SDS011;39605;52.704;6.752;2023-09-12T00:11:30;49.28;;;44.35;;
53710;SDS011;39605;52.704;6.752;2023-09-12T00:13:57;51.97;;;47.03;;
53710;SDS011;39605;52.704;6.752;2023-09-12T00:16:27;53.88;;;48.22;;
53710;SDS011;39605;52.704;6.752;2023-09-12T00:18:53;48.83;;;44.33;;
53710;SDS011;39605;52.704;6.752;2023-09-12T00:21:19;60.20;;;53.78;;
53710;SDS011;39605;52.704;6.752;2023-09-12T00:23:45;48.60;;;44.05;;
53710;SDS011;39605;52.704;6.752;2023-09-12T00:26:11;55.05;;;49.38;;
53710;SDS011;39605;52.704;6.752;2023-09-12T00:28:37;56.08;;;50.60;;
53710;SDS011;39605;52.704;6.752;2023-09-12T00:31:03;54.17;;;48.65;;
53710;SDS011;39605;52.704;6.752;2023-09-12T00:33:29;57.20;;;51.10;;
53710;SDS011;39605;52.704;6.752;2023-09-12T00:35:55;55.45;;;49.88;;
53710;SDS011;39605;52.704;6.752;2023-09-12T00:38:22;68.63;;;58.75;;
53710;SDS011;39605;52.704;6.752;2023-09-12T00:40:48;56.08;;;50.17;;
53710;SDS011;39605;52.704;6.752;2023-09-12T00:43:15;58.85;;;52.97;;
53710;SDS011;39605;52.704;6.752;2023-09-12T00:45:41;56.70;;;50.97;;
53710;SDS011;39605;52.704;6.752;2023-09-12T00:48:08;55.70;;;50.40;;
53710;SDS011;39605;52.704;6.752;2023-09-12T00:50:34;52.25;;;47.05;;
53710;SDS011;39605;52.704;6.752;2023-09-12T00:53:01;55.53;;;49.80;;
53710;SDS011;39605;52.704;6.752;2023-09-12T00:55:29;62.55;;;55.60;;
53710;SDS011;39605;52.704;6.752;2023-09-12T00:57:55;58.75;;;52.85;;
53710;SDS011;39605;52.704;6.752;2023-09-12T01:00:21;60.97;;;53.90;;
53710;SDS011;39605;52.704;6.752;2023-09-12T01:02:48;54.67;;;49.22;;
53710;SDS011;39605;52.704;6.752;2023-09-12T01:05:16;62.30;;;55.38;;
53710;SDS011;39605;52.704;6.752;2023-09-12T01:07:42;57.92;;;51.85;;
53710;SDS011;39605;52.704;6.752;2023-09-12T01:10:09;64.32;;;57.25;;
53710;SDS011;39605;52.704;6.752;2023-09-12T01:12:35;56.70;;;51.05;;
53710;SDS011;39605;52.704;6.752;2023-09-12T01:15:02;131.73;;;71.15;;
53710;SDS011;39605;52.704;6.752;2023-09-12T01:17:33;57.20;;;51.22;;
53710;SDS011;39605;52.704;6.752;2023-09-12T01:20:00;63.92;;;54.65;;
53710;SDS011;39605;52.704;6.752;2023-09-12T01:22:35;54.95;;;49.45;;
53710;SDS011;39605;52.704;6.752;2023-09-12T01:27:32;60.13;;;53.25;;
53710;SDS011;39605;52.704;6.752;2023-09-12T01:30:04;60.83;;;52.80;;
53710;SDS011;39605;52.704;6.752;2023-09-12T01:32:31;98.63;;;64.93;;
53710;SDS011;39605;52.704;6.752;2023-09-12T01:34:58;55.05;;;49.40;;
53710;SDS011;39605;52.704;6.752;2023-09-12T01:37:24;54.63;;;49.25;;
53710;SDS011;39605;52.704;6.752;2023-09-12T01:39:51;57.03;;;51.20;;
53710;SDS011;39605;52.704;6.752;2023-09-12T01:42:20;68.80;;;59.95;;
53710;SDS011;39605;52.704;6.752;2023-09-12T01:44:49;57.88;;;51.83;;
53710;SDS011;39605;52.704;6.752;2023-09-12T01:47:16;54.28;;;48.72;;
53710;SDS011;39605;52.704;6.752;2023-09-12T01:49:42;60.80;;;54.60;;
53710;SDS011;39605;52.704;6.752;2023-09-12T01:52:09;61.58;;;55.08;;
53710;SDS011;39605;52.704;6.752;2023-09-12T01:54:36;84.07;;;66.03;;
53710;SDS011;39605;52.704;6.752;2023-09-12T01:57:02;60.13;;;54.10;;
53710;SDS011;39605;52.704;6.752;2023-09-12T01:59:28;62.10;;;55.70;;
53710;SDS011;39605;52.704;6.752;2023-09-12T02:01:55;59.47;;;53.22;;
53710;SDS011;39605;52.704;6.752;2023-09-12T02:04:21;60.78;;;54.30;;
53710;SDS011;39605;52.704;6.752;2023-09-12T02:06:47;57.30;;;51.42;;
53710;SDS011;39605;52.704;6.752;2023-09-12T02:09:13;74.70;;;61.63;;
53710;SDS011;39605;52.704;6.752;2023-09-12T02:11:39;64.80;;;56.40;;
53710;SDS011;39605;52.704;6.752;2023-09-12T02:14:05;65.07;;;57.95;;
53710;SDS011;39605;52.704;6.752;2023-09-12T02:16:31;55.53;;;50.10;;
53710;SDS011;39605;52.704;6.752;2023-09-12T02:18:58;57.60;;;51.45;;
53710;SDS011;39605;52.704;6.752;2023-09-12T02:21:24;72.97;;;58.05;;
53710;SDS011;39605;52.704;6.752;2023-09-12T02:23:50;61.08;;;54.55;;
53710;SDS011;39605;52.704;6.752;2023-09-12T02:26:17;64.03;;;56.40;;
53710;SDS011;39605;52.704;6.752;2023-09-12T02:28:43;86.35;;;59.97;;
53710;SDS011;39605;52.704;6.752;2023-09-12T02:31:10;98.30;;;61.08;;
53710;SDS011;39605;52.704;6.752;2023-09-12T02:33:37;47.17;;;42.83;;
53710;SDS011;39605;52.704;6.752;2023-09-12T02:36:04;52.28;;;47.03;;
53710;SDS011;39605;52.704;6.752;2023-09-12T02:38:30;49.13;;;44.50;;
53710;SDS011;39605;52.704;6.752;2023-09-12T02:40:56;97.85;;;61.25;;
53710;SDS011;39605;52.704;6.752;2023-09-12T02:43:22;50.03;;;45.40;;
53710;SDS011;39605;52.704;6.752;2023-09-12T02:45:48;52.80;;;47.35;;
53710;SDS011;39605;52.704;6.752;2023-09-12T02:48:14;51.63;;;46.67;;
53710;SDS011;39605;52.704;6.752;2023-09-12T02:50:40;52.17;;;47.15;;
53710;SDS011;39605;52.704;6.752;2023-09-12T02:53:06;51.88;;;46.50;;
53710;SDS011;39605;52.704;6.752;2023-09-12T02:55:33;50.63;;;45.85;;
53710;SDS011;39605;52.704;6.752;2023-09-12T02:57:59;63.65;;;45.65;;
53710;SDS011;39605;52.704;6.752;2023-09-12T03:00:25;85.50;;;48.35;;
53710;SDS011;39605;52.704;6.752;2023-09-12T03:02:51;204.52;;;48.63;;
53710;SDS011;39605;52.704;6.752;2023-09-12T03:05:17;189.25;;;49.08;;
53710;SDS011;39605;52.704;6.752;2023-09-12T03:07:43;67.20;;;45.63;;
53710;SDS011;39605;52.704;6.752;2023-09-12T03:10:09;66.35;;;43.45;;
53710;SDS011;39605;52.704;6.752;2023-09-12T03:12:35;60.80;;;41.78;;
53710;SDS011;39605;52.704;6.752;2023-09-12T03:15:02;143.80;;;46.42;;
53710;SDS011;39605;52.704;6.752;2023-09-12T03:17:29;83.18;;;46.30;;
53710;SDS011;39605;52.704;6.752;2023-09-12T03:19:55;150.25;;;46.70;;
53710;SDS011;39605;52.704;6.752;2023-09-12T03:22:21;259.38;;;55.10;;
53710;SDS011;39605;52.704;6.752;2023-09-12T03:24:47;181.52;;;49.25;;
53710;SDS011;39605;52.704;6.752;2023-09-12T03:27:13;902.65;;;108.50;;
53710;SDS011;39605;52.704;6.752;2023-09-12T03:29:39;122.05;;;47.40;;
53710;SDS011;39605;52.704;6.752;2023-09-12T03:32:05;132.77;;;49.53;;
53710;SDS011;39605;52.704;6.752;2023-09-12T03:34:31;69.72;;;45.65;;
53710;SDS011;39605;52.704;6.752;2023-09-12T03:36:57;127.05;;;48.67;;
53710;SDS011;39605;52.704;6.752;2023-09-12T03:39:23;159.48;;;50.17;;
53710;SDS011;39605;52.704;6.752;2023-09-12T03:41:49;104.25;;;50.47;;
53710;SDS011;39605;52.704;6.752;2023-09-12T03:44:15;487.00;;;79.13;;
53710;SDS011;39605;52.704;6.752;2023-09-12T03:46:41;151.88;;;47.75;;
53710;SDS011;39605;52.704;6.752;2023-09-12T03:49:07;110.50;;;51.25;;
53710;SDS011;39605;52.704;6.752;2023-09-12T03:51:34;85.05;;;48.22;;
53710;SDS011;39605;52.704;6.752;2023-09-12T03:54:00;128.68;;;49.00;;
53710;SDS011;39605;52.704;6.752;2023-09-12T03:56:26;304.48;;;71.65;;
53710;SDS011;39605;52.704;6.752;2023-09-12T03:58:52;68.38;;;47.58;;
53710;SDS011;39605;52.704;6.752;2023-09-12T04:01:21;245.05;;;62.65;;
53710;SDS011;39605;52.704;6.752;2023-09-12T04:03:47;223.40;;;63.08;;
53710;SDS011;39605;52.704;6.752;2023-09-12T04:06:13;150.52;;;50.85;;
53710;SDS011;39605;52.704;6.752;2023-09-12T04:08:39;102.50;;;53.08;;
53710;SDS011;39605;52.704;6.752;2023-09-12T04:11:05;622.03;;;105.95;;
53710;SDS011;39605;52.704;6.752;2023-09-12T04:13:32;93.15;;;49.72;;
53710;SDS011;39605;52.704;6.752;2023-09-12T04:15:58;144.10;;;51.25;;
53710;SDS011;39605;52.704;6.752;2023-09-12T04:18:24;111.72;;;55.25;;
53710;SDS011;39605;52.704;6.752;2023-09-12T04:20:50;700.83;;;118.03;;
53710;SDS011;39605;52.704;6.752;2023-09-12T04:23:16;59.38;;;49.58;;
53710;SDS011;39605;52.704;6.752;2023-09-12T04:25:42;124.00;;;52.05;;
53710;SDS011;39605;52.704;6.752;2023-09-12T04:28:08;140.90;;;54.13;;
53710;SDS011;39605;52.704;6.752;2023-09-12T04:30:35;125.82;;;53.22;;
53710;SDS011;39605;52.704;6.752;2023-09-12T04:33:01;287.85;;;74.85;;
53710;SDS011;39605;52.704;6.752;2023-09-12T04:35:27;113.50;;;50.17;;
53710;SDS011;39605;52.704;6.752;2023-09-12T04:37:53;91.88;;;48.45;;
53710;SDS011;39605;52.704;6.752;2023-09-12T04:40:19;56.67;;;48.47;;
53710;SDS011;39605;52.704;6.752;2023-09-12T04:42:45;60.67;;;46.33;;
53710;SDS011;39605;52.704;6.752;2023-09-12T04:45:11;575.83;;;103.05;;
53710;SDS011;39605;52.704;6.752;2023-09-12T04:47:37;693.28;;;117.28;;
53710;SDS011;39605;52.704;6.752;2023-09-12T04:50:03;95.65;;;44.35;;
53710;SDS011;39605;52.704;6.752;2023-09-12T04:52:30;185.20;;;60.67;;
53710;SDS011;39605;52.704;6.752;2023-09-12T04:54:56;119.53;;;49.30;;
53710;SDS011;39605;52.704;6.752;2023-09-12T04:57:22;65.53;;;45.88;;
53710;SDS011;39605;52.704;6.752;2023-09-12T04:59:48;53.17;;;47.35;;
53710;SDS011;39605;52.704;6.752;2023-09-12T05:02:14;69.93;;;48.05;;
53710;SDS011;39605;52.704;6.752;2023-09-12T05:04:40;386.58;;;82.28;;
53710;SDS011;39605;52.704;6.752;2023-09-12T05:07:07;456.50;;;91.32;;
53710;SDS011;39605;52.704;6.752;2023-09-12T05:09:33;54.25;;;48.28;;
53710;SDS011;39605;52.704;6.752;2023-09-12T05:11:59;304.20;;;73.72;;
53710;SDS011;39605;52.704;6.752;2023-09-12T05:14:25;58.83;;;47.58;;
53710;SDS011;39605;52.704;6.752;2023-09-12T05:16:51;51.00;;;45.38;;
53710;SDS011;39605;52.704;6.752;2023-09-12T05:19:18;50.45;;;45.13;;
53710;SDS011;39605;52.704;6.752;2023-09-12T05:21:44;50.80;;;45.40;;
53710;SDS011;39605;52.704;6.752;2023-09-12T05:24:10;68.75;;;47.72;;
53710;SDS011;39605;52.704;6.752;2023-09-12T05:26:36;48.72;;;43.47;;
53710;SDS011;39605;52.704;6.752;2023-09-12T05:29:02;50.97;;;45.58;;
53710;SDS011;39605;52.704;6.752;2023-09-12T05:31:30;65.63;;;44.72;;
53710;SDS011;39605;52.704;6.752;2023-09-12T05:33:57;50.83;;;45.35;;
53710;SDS011;39605;52.704;6.752;2023-09-12T05:36:23;82.82;;;46.03;;
53710;SDS011;39605;52.704;6.752;2023-09-12T05:38:49;114.65;;;52.95;;
53710;SDS011;39605;52.704;6.752;2023-09-12T05:41:15;56.72;;;49.10;;
53710;SDS011;39605;52.704;6.752;2023-09-12T05:43:41;131.65;;;56.28;;
53710;SDS011;39605;52.704;6.752;2023-09-12T05:46:08;173.80;;;62.70;;
53710;SDS011;39605;52.704;6.752;2023-09-12T05:48:34;69.82;;;54.80;;
53710;SDS011;39605;52.704;6.752;2023-09-12T05:51:00;63.45;;;51.38;;
53710;SDS011;39605;52.704;6.752;2023-09-12T05:53:26;67.88;;;55.28;;
53710;SDS011;39605;52.704;6.752;2023-09-12T05:55:52;58.65;;;51.95;;
53710;SDS011;39605;52.704;6.752;2023-09-12T05:58:18;84.80;;;59.85;;
53710;SDS011;39605;52.704;6.752;2023-09-12T06:00:44;154.23;;;72.88;;
53710;SDS011;39605;52.704;6.752;2023-09-12T06:03:14;70.70;;;56.97;;
53710;SDS011;39605;52.704;6.752;2023-09-12T06:05:40;77.57;;;61.45;;
53710;SDS011;39605;52.704;6.752;2023-09-12T06:08:06;66.10;;;56.53;;
53710;SDS011;39605;52.704;6.752;2023-09-12T06:10:32;70.13;;;58.28;;
53710;SDS011;39605;52.704;6.752;2023-09-12T06:12:59;73.03;;;58.65;;
53710;SDS011;39605;52.704;6.752;2023-09-12T06:15:25;67.72;;;57.33;;
53710;SDS011;39605;52.704;6.752;2023-09-12T06:17:51;78.72;;;61.67;;
53710;SDS011;39605;52.704;6.752;2023-09-12T06:20:17;71.82;;;57.97;;
53710;SDS011;39605;52.704;6.752;2023-09-12T06:22:43;78.22;;;62.67;;
53710;SDS011;39605;52.704;6.752;2023-09-12T06:25:09;69.10;;;56.83;;
53710;SDS011;39605;52.704;6.752;2023-09-12T06:27:35;66.97;;;56.67;;
53710;SDS011;39605;52.704;6.752;2023-09-12T06:30:01;78.47;;;61.17;;
53710;SDS011;39605;52.704;6.752;2023-09-12T06:32:28;110.05;;;68.63;;
53710;SDS011;39605;52.704;6.752;2023-09-12T06:34:54;74.65;;;60.00;;
53710;SDS011;39605;52.704;6.752;2023-09-12T06:37:20;76.25;;;62.45;;
53710;SDS011;39605;52.704;6.752;2023-09-12T06:39:48;74.82;;;60.45;;
53710;SDS011;39605;52.704;6.752;2023-09-12T06:42:15;78.93;;;62.63;;
53710;SDS011;39605;52.704;6.752;2023-09-12T06:44:42;69.03;;;58.58;;
53710;SDS011;39605;52.704;6.752;2023-09-12T06:47:08;84.20;;;63.70;;
53710;SDS011;39605;52.704;6.752;2023-09-12T06:49:35;80.97;;;63.13;;
53710;SDS011;39605;52.704;6.752;2023-09-12T06:52:03;74.43;;;59.75;;
53710;SDS011;39605;52.704;6.752;2023-09-12T06:54:29;100.03;;;67.35;;
53710;SDS011;39605;52.704;6.752;2023-09-12T06:56:55;75.95;;;61.08;;
53710;SDS011;39605;52.704;6.752;2023-09-12T06:59:21;75.63;;;60.38;;
53710;SDS011;39605;52.704;6.752;2023-09-12T07:01:47;77.20;;;62.25;;
53710;SDS011;39605;52.704;6.752;2023-09-12T07:04:13;75.28;;;58.05;;
53710;SDS011;39605;52.704;6.752;2023-09-12T07:06:41;74.80;;;58.38;;
53710;SDS011;39605;52.704;6.752;2023-09-12T07:09:07;99.35;;;64.25;;
53710;SDS011;39605;52.704;6.752;2023-09-12T07:11:34;75.88;;;58.55;;
53710;SDS011;39605;52.704;6.752;2023-09-12T07:14:00;67.90;;;56.85;;
53710;SDS011;39605;52.704;6.752;2023-09-12T07:16:29;73.28;;;55.70;;
53710;SDS011;39605;52.704;6.752;2023-09-12T07:18:55;64.82;;;52.28;;
53710;SDS011;39605;52.704;6.752;2023-09-12T07:21:21;65.10;;;54.05;;
53710;SDS011;39605;52.704;6.752;2023-09-12T07:23:47;61.97;;;51.40;;
53710;SDS011;39605;52.704;6.752;2023-09-12T07:26:14;61.45;;;50.60;;
53710;SDS011;39605;52.704;6.752;2023-09-12T07:28:40;65.22;;;50.65;;
53710;SDS011;39605;52.704;6.752;2023-09-12T07:31:06;61.33;;;50.13;;
53710;SDS011;39605;52.704;6.752;2023-09-12T07:33:32;63.35;;;50.65;;
53710;SDS011;39605;52.704;6.752;2023-09-12T07:35:58;65.13;;;51.78;;
53710;SDS011;39605;52.704;6.752;2023-09-12T07:38:25;64.78;;;52.65;;
53710;SDS011;39605;52.704;6.752;2023-09-12T07:40:52;68.95;;;53.65;;
53710;SDS011;39605;52.704;6.752;2023-09-12T07:43:18;68.00;;;55.72;;
53710;SDS011;39605;52.704;6.752;2023-09-12T07:45:44;67.35;;;56.70;;
53710;SDS011;39605;52.704;6.752;2023-09-12T07:48:10;71.28;;;55.38;;
53710;SDS011;39605;52.704;6.752;2023-09-12T07:50:36;70.68;;;57.08;;
53710;SDS011;39605;52.704;6.752;2023-09-12T07:53:06;67.40;;;54.22;;
53710;SDS011;39605;52.704;6.752;2023-09-12T07:55:36;70.63;;;57.15;;
53710;SDS011;39605;52.704;6.752;2023-09-12T07:58:10;63.00;;;53.15;;
53710;SDS011;39605;52.704;6.752;2023-09-12T08:00:36;71.30;;;56.10;;
53710;SDS011;39605;52.704;6.752;2023-09-12T08:03:03;63.15;;;53.47;;
53710;SDS011;39605;52.704;6.752;2023-09-12T08:05:29;64.85;;;53.55;;
53710;SDS011;39605;52.704;6.752;2023-09-12T08:07:55;67.50;;;54.13;;
53710;SDS011;39605;52.704;6.752;2023-09-12T08:10:23;70.43;;;56.17;;
53710;SDS011;39605;52.704;6.752;2023-09-12T08:12:49;65.55;;;54.33;;
53710;SDS011;39605;52.704;6.752;2023-09-12T08:15:15;62.10;;;53.75;;
53710;SDS011;39605;52.704;6.752;2023-09-12T08:17:41;66.07;;;55.72;;
53710;SDS011;39605;52.704;6.752;2023-09-12T08:20:07;61.78;;;52.72;;
53710;SDS011;39605;52.704;6.752;2023-09-12T08:22:37;61.60;;;51.80;;
53710;SDS011;39605;52.704;6.752;2023-09-12T08:25:04;56.35;;;50.28;;
53710;SDS011;39605;52.704;6.752;2023-09-12T08:27:30;52.13;;;46.33;;
53710;SDS011;39605;52.704;6.752;2023-09-12T08:29:56;56.15;;;50.03;;
53710;SDS011;39605;52.704;6.752;2023-09-12T08:32:22;55.35;;;48.03;;
53710;SDS011;39605;52.704;6.752;2023-09-12T08:34:48;55.00;;;49.00;;
53710;SDS011;39605;52.704;6.752;2023-09-12T08:37:14;54.08;;;46.55;;
53710;SDS011;39605;52.704;6.752;2023-09-12T08:39:41;53.75;;;47.85;;
53710;SDS011;39605;52.704;6.752;2023-09-12T08:42:15;49.85;;;44.47;;
53710;SDS011;39605;52.704;6.752;2023-09-12T08:44:42;51.50;;;46.05;;
53710;SDS011;39605;52.704;6.752;2023-09-12T08:47:09;50.85;;;45.25;;
53710;SDS011;39605;52.704;6.752;2023-09-12T08:49:35;55.80;;;48.35;;
53710;SDS011;39605;52.704;6.752;2023-09-12T08:52:02;53.30;;;47.53;;
53710;SDS011;39605;52.704;6.752;2023-09-12T08:54:29;53.03;;;47.22;;
53710;SDS011;39605;52.704;6.752;2023-09-12T08:56:55;54.78;;;46.72;;
53710;SDS011;39605;52.704;6.752;2023-09-12T08:59:21;51.03;;;45.50;;
53710;SDS011;39605;52.704;6.752;2023-09-12T09:01:47;49.42;;;44.33;;
53710;SDS011;39605;52.704;6.752;2023-09-12T09:04:17;48.70;;;43.20;;
53710;SDS011;39605;52.704;6.752;2023-09-12T09:06:44;49.72;;;44.38;;
53710;SDS011;39605;52.704;6.752;2023-09-12T09:09:11;53.50;;;47.22;;
53710;SDS011;39605;52.704;6.752;2023-09-12T09:11:38;61.13;;;50.15;;
53710;SDS011;39605;52.704;6.752;2023-09-12T09:14:04;54.15;;;48.03;;
53710;SDS011;39605;52.704;6.752;2023-09-12T09:16:30;53.53;;;47.13;;
53710;SDS011;39605;52.704;6.752;2023-09-12T09:19:00;50.42;;;45.03;;
53710;SDS011;39605;52.704;6.752;2023-09-12T09:21:28;49.10;;;43.95;;
53710;SDS011;39605;52.704;6.752;2023-09-12T09:23:59;49.33;;;44.17;;
53710;SDS011;39605;52.704;6.752;2023-09-12T09:26:25;50.03;;;44.63;;
53710;SDS011;39605;52.704;6.752;2023-09-12T09:29:05;50.40;;;45.13;;
53710;SDS011;39605;52.704;6.752;2023-09-12T09:31:32;49.60;;;44.55;;
53710;SDS011;39605;52.704;6.752;2023-09-12T09:33:59;51.28;;;45.88;;
53710;SDS011;39605;52.704;6.752;2023-09-12T09:36:26;52.55;;;46.97;;
53710;SDS011;39605;52.704;6.752;2023-09-12T09:38:54;51.38;;;45.90;;
53710;SDS011;39605;52.704;6.752;2023-09-12T09:41:20;51.13;;;45.60;;
53710;SDS011;39605;52.704;6.752;2023-09-12T09:43:50;49.38;;;44.03;;
53710;SDS011;39605;52.704;6.752;2023-09-12T09:46:16;48.15;;;43.05;;
53710;SDS011;39605;52.704;6.752;2023-09-12T09:48:49;48.92;;;43.90;;
53710;SDS011;39605;52.704;6.752;2023-09-12T09:51:16;49.45;;;44.30;;
53710;SDS011;39605;52.704;6.752;2023-09-12T09:53:42;51.58;;;45.72;;
53710;SDS011;39605;52.704;6.752;2023-09-12T09:58:42;45.67;;;41.00;;
53710;SDS011;39605;52.704;6.752;2023-09-12T10:01:08;48.28;;;43.35;;
53710;SDS011;39605;52.704;6.752;2023-09-12T10:03:36;46.33;;;41.65;;
53710;SDS011;39605;52.704;6.752;2023-09-12T10:06:03;47.97;;;43.28;;
53710;SDS011;39605;52.704;6.752;2023-09-12T10:08:30;47.22;;;42.55;;
53710;SDS011;39605;52.704;6.752;2023-09-12T10:10:57;47.83;;;43.03;;
53710;SDS011;39605;52.704;6.752;2023-09-12T10:13:24;43.40;;;39.13;;
53710;SDS011;39605;52.704;6.752;2023-09-12T10:15:56;43.28;;;38.97;;
53710;SDS011;39605;52.704;6.752;2023-09-12T10:18:22;41.38;;;37.25;;
53710;SDS011;39605;52.704;6.752;2023-09-12T10:20:52;38.92;;;35.22;;
53710;SDS011;39605;52.704;6.752;2023-09-12T10:23:30;36.47;;;33.03;;
53710;SDS011;39605;52.704;6.752;2023-09-12T10:26:02;35.93;;;32.40;;
53710;SDS011;39605;52.704;6.752;2023-09-12T10:28:29;34.47;;;31.38;;
53710;SDS011;39605;52.704;6.752;2023-09-12T10:30:57;38.40;;;34.63;;
53710;SDS011;39605;52.704;6.752;2023-09-12T10:33:23;38.25;;;34.33;;
53710;SDS011;39605;52.704;6.752;2023-09-12T10:35:50;37.58;;;34.05;;
53710;SDS011;39605;52.704;6.752;2023-09-12T10:38:17;39.53;;;35.55;;
53710;SDS011;39605;52.704;6.752;2023-09-12T10:40:44;35.92;;;32.58;;
53710;SDS011;39605;52.704;6.752;2023-09-12T10:43:10;35.78;;;32.42;;
53710;SDS011;39605;52.704;6.752;2023-09-12T10:45:37;38.13;;;34.50;;
53710;SDS011;39605;52.704;6.752;2023-09-12T10:48:04;35.63;;;32.10;;
53710;SDS011;39605;52.704;6.752;2023-09-12T10:50:31;36.13;;;32.67;;
53710;SDS011;39605;52.704;6.752;2023-09-12T10:53:08;32.80;;;29.73;;
53710;SDS011;39605;52.704;6.752;2023-09-12T10:55:34;36.17;;;32.67;;
53710;SDS011;39605;52.704;6.752;2023-09-12T10:58:01;35.75;;;32.28;;
53710;SDS011;39605;52.704;6.752;2023-09-12T11:00:28;36.15;;;32.83;;
53710;SDS011;39605;52.704;6.752;2023-09-12T11:02:54;33.88;;;30.73;;
53710;SDS011;39605;52.704;6.752;2023-09-12T11:08:00;32.47;;;29.45;;
53710;SDS011;39605;52.704;6.752;2023-09-12T11:10:26;32.65;;;29.65;;
53710;SDS011;39605;52.704;6.752;2023-09-12T11:12:54;30.55;;;27.52;;
53710;SDS011;39605;52.704;6.752;2023-09-12T11:15:23;31.48;;;28.20;;
53710;SDS011;39605;52.704;6.752;2023-09-12T11:17:51;30.77;;;27.80;;
53710;SDS011;39605;52.704;6.752;2023-09-12T11:20:25;33.60;;;30.33;;
53710;SDS011;39605;52.704;6.752;2023-09-12T11:22:51;33.20;;;30.10;;
53710;SDS011;39605;52.704;6.752;2023-09-12T11:25:25;29.27;;;26.60;;
53710;SDS011;39605;52.704;6.752;2023-09-12T11:30:18;29.63;;;26.90;;
53710;SDS011;39605;52.704;6.752;2023-09-12T11:32:48;30.92;;;28.02;;
53710;SDS011;39605;52.704;6.752;2023-09-12T11:35:15;28.23;;;25.42;;
53710;SDS011;39605;52.704;6.752;2023-09-12T11:38:15;29.90;;;27.10;;
53710;SDS011;39605;52.704;6.752;2023-09-12T11:43:00;27.13;;;24.50;;
53710;SDS011;39605;52.704;6.752;2023-09-12T11:45:26;28.75;;;26.20;;
53710;SDS011;39605;52.704;6.752;2023-09-12T11:47:53;28.65;;;26.10;;
53710;SDS011;39605;52.704;6.752;2023-09-12T11:53:08;29.02;;;26.48;;
53710;SDS011;39605;52.704;6.752;2023-09-12T11:55:42;29.48;;;26.60;;
53710;SDS011;39605;52.704;6.752;2023-09-12T11:58:09;26.45;;;24.15;;
53710;SDS011;39605;52.704;6.752;2023-09-12T12:00:36;26.27;;;23.92;;
53710;SDS011;39605;52.704;6.752;2023-09-12T12:03:03;27.20;;;24.67;;
53710;SDS011;39605;52.704;6.752;2023-09-12T12:05:29;23.90;;;21.80;;
53710;SDS011;39605;52.704;6.752;2023-09-12T12:07:55;26.60;;;24.10;;
53710;SDS011;39605;52.704;6.752;2023-09-12T12:10:23;24.85;;;22.67;;
53710;SDS011;39605;52.704;6.752;2023-09-12T12:12:52;25.40;;;23.13;;
53710;SDS011;39605;52.704;6.752;2023-09-12T12:15:19;23.02;;;20.92;;
53710;SDS011;39605;52.704;6.752;2023-09-12T12:17:45;24.48;;;22.17;;
53710;SDS011;39605;52.704;6.752;2023-09-12T12:20:12;23.10;;;21.10;;
53710;SDS011;39605;52.704;6.752;2023-09-12T12:22:38;26.17;;;23.67;;
53710;SDS011;39605;52.704;6.752;2023-09-12T12:25:08;26.05;;;23.85;;
53710;SDS011;39605;52.704;6.752;2023-09-12T12:27:35;23.42;;;20.92;;
53710;SDS011;39605;52.704;6.752;2023-09-12T12:30:01;22.13;;;20.13;;
53710;SDS011;39605;52.704;6.752;2023-09-12T12:32:28;21.98;;;20.08;;
53710;SDS011;39605;52.704;6.752;2023-09-12T12:34:54;19.65;;;17.88;;
53710;SDS011;39605;52.704;6.752;2023-09-12T12:37:20;18.17;;;16.58;;
53710;SDS011;39605;52.704;6.752;2023-09-12T12:39:46;18.40;;;16.80;;
53710;SDS011;39605;52.704;6.752;2023-09-12T12:42:13;20.45;;;18.75;;
53710;SDS011;39605;52.704;6.752;2023-09-12T12:44:39;21.05;;;19.33;;
53710;SDS011;39605;52.704;6.752;2023-09-12T12:47:06;19.10;;;17.50;;
53710;SDS011;39605;52.704;6.752;2023-09-12T12:49:37;18.88;;;17.35;;
53710;SDS011;39605;52.704;6.752;2023-09-12T12:52:11;18.92;;;17.13;;
53710;SDS011;39605;52.704;6.752;2023-09-12T12:54:37;20.17;;;18.35;;
53710;SDS011;39605;52.704;6.752;2023-09-12T12:57:03;18.33;;;16.73;;
53710;SDS011;39605;52.704;6.752;2023-09-12T12:59:30;17.90;;;16.40;;
53710;SDS011;39605;52.704;6.752;2023-09-12T13:01:59;15.95;;;14.55;;
53710;SDS011;39605;52.704;6.752;2023-09-12T13:04:26;13.93;;;12.63;;
53710;SDS011;39605;52.704;6.752;2023-09-12T13:06:52;11.35;;;10.45;;
53710;SDS011;39605;52.704;6.752;2023-09-12T13:09:18;9.07;;;8.27;;
53710;SDS011;39605;52.704;6.752;2023-09-12T13:11:45;10.77;;;9.77;;
53710;SDS011;39605;52.704;6.752;2023-09-12T13:14:11;15.10;;;13.70;;
53710;SDS011;39605;52.704;6.752;2023-09-12T13:16:37;16.33;;;14.95;;
53710;SDS011;39605;52.704;6.752;2023-09-12T13:19:05;12.52;;;11.63;;
53710;SDS011;39605;52.704;6.752;2023-09-12T13:21:31;10.73;;;9.93;;
53710;SDS011;39605;52.704;6.752;2023-09-12T13:23:57;9.68;;;8.88;;
53710;SDS011;39605;52.704;6.752;2023-09-12T13:26:24;9.77;;;8.93;;
53710;SDS011;39605;52.704;6.752;2023-09-12T13:28:50;9.73;;;8.73;;
53710;SDS011;39605;52.704;6.752;2023-09-12T13:31:16;11.35;;;10.32;;
53710;SDS011;39605;52.704;6.752;2023-09-12T13:33:42;12.88;;;11.85;;
53710;SDS011;39605;52.704;6.752;2023-09-12T13:36:08;10.25;;;9.45;;
53710;SDS011;39605;52.704;6.752;2023-09-12T13:38:34;10.45;;;9.45;;
53710;SDS011;39605;52.704;6.752;2023-09-12T13:41:01;8.93;;;8.23;;
53710;SDS011;39605;52.704;6.752;2023-09-12T13:43:28;8.95;;;8.02;;
53710;SDS011;39605;52.704;6.752;2023-09-12T13:45:54;9.32;;;8.52;;
53710;SDS011;39605;52.704;6.752;2023-09-12T13:48:20;10.05;;;9.25;;
53710;SDS011;39605;52.704;6.752;2023-09-12T13:50:46;11.35;;;10.45;;
53710;SDS011;39605;52.704;6.752;2023-09-12T13:53:12;12.15;;;11.13;;
53710;SDS011;39605;52.704;6.752;2023-09-12T13:55:39;9.23;;;8.43;;
53710;SDS011;39605;52.704;6.752;2023-09-12T13:58:05;11.70;;;9.63;;
53710;SDS011;39605;52.704;6.752;2023-09-12T14:00:32;12.90;;;11.90;;
53710;SDS011;39605;52.704;6.752;2023-09-12T14:02:58;10.43;;;9.60;;
53710;SDS011;39605;52.704;6.752;2023-09-12T14:05:25;9.35;;;8.65;;
53710;SDS011;39605;52.704;6.752;2023-09-12T14:07:51;11.63;;;10.57;;
53710;SDS011;39605;52.704;6.752;2023-09-12T14:10:17;9.05;;;8.23;;
53710;SDS011;39605;52.704;6.752;2023-09-12T14:12:43;7.25;;;6.57;;
53710;SDS011;39605;52.704;6.752;2023-09-12T14:15:09;10.07;;;9.27;;
53710;SDS011;39605;52.704;6.752;2023-09-12T14:17:36;8.50;;;7.82;;
53710;SDS011;39605;52.704;6.752;2023-09-12T14:20:02;7.65;;;7.05;;
53710;SDS011;39605;52.704;6.752;2023-09-12T14:22:28;7.95;;;7.13;;
53710;SDS011;39605;52.704;6.752;2023-09-12T14:24:54;6.90;;;6.18;;
53710;SDS011;39605;52.704;6.752;2023-09-12T14:27:21;8.32;;;7.53;;
53710;SDS011;39605;52.704;6.752;2023-09-12T14:29:47;9.30;;;8.40;;
53710;SDS011;39605;52.704;6.752;2023-09-12T14:32:14;7.90;;;7.22;;
53710;SDS011;39605;52.704;6.752;2023-09-12T14:34:40;7.68;;;7.13;;